Time;durP1;ratioP1;P1;durP2;ratioP2;P2;SDS_P1;SDS_P2;PMS_P1;PMS_P2;Temp;Humidity;BMP_temperature;BMP_pressure;BME280_temperature;BME280_humidity;BME280_pressure;Samples;Min_cycle;Max_cycle;Signal;HPM_P1;HPM_P2
2021/12/01 00:00:26;;;;;;;41.65;5.63;;;5.50;99.90;;;;;;4998446;28;20049;-53
2021/12/01 00:02:53;;;;;;;21.20;4.00;;;5.50;99.90;;;;;;5000134;28;20113;-52
2021/12/01 00:05:25;;;;;;;23.27;4.55;;;5.50;99.90;;;;;;5003991;28;20107;-52
2021/12/01 00:07:52;;;;;;;21.97;3.70;;;5.50;99.90;;;;;;4991844;28;20384;-50
2021/12/01 00:10:20;;;;;;;22.20;4.50;;;5.50;99.90;;;;;;4997828;28;20272;-54
2021/12/01 00:12:46;;;;;;;22.05;4.38;;;5.50;99.90;;;;;;5008207;28;20029;-50
2021/12/01 00:15:13;;;;;;;23.38;5.45;;;5.60;99.90;;;;;;4997934;28;20045;-52
2021/12/01 00:17:38;;;;;;;38.38;6.05;;;5.60;99.90;;;;;;5008565;28;20057;-51
2021/12/01 00:20:07;;;;;;;25.08;5.85;;;5.60;99.90;;;;;;4997173;28;20580;-55
2021/12/01 00:22:33;;;;;;;27.30;5.60;;;5.60;99.90;;;;;;5000596;28;20472;-53
2021/12/01 00:24:58;;;;;;;22.88;6.50;;;5.60;99.90;;;;;;5003018;28;20041;-53
2021/12/01 00:27:24;;;;;;;23.05;5.20;;;5.60;99.90;;;;;;5004547;28;20034;-52
2021/12/01 00:29:50;;;;;;;24.08;6.22;;;5.60;99.90;;;;;;5001691;28;20052;-51
2021/12/01 00:32:17;;;;;;;24.65;6.18;;;5.60;99.90;;;;;;5005460;28;20038;-52
2021/12/01 00:34:43;;;;;;;30.90;7.00;;;5.60;99.90;;;;;;5001392;28;20101;-52
2021/12/01 00:37:08;;;;;;;41.58;6.75;;;5.60;99.90;;;;;;5005955;28;20495;-54
2021/12/01 00:39:34;;;;;;;35.55;7.05;;;5.60;99.90;;;;;;5001117;28;20124;-52
2021/12/01 00:42:00;;;;;;;27.73;6.40;;;5.60;99.90;;;;;;5005058;28;20391;-54
2021/12/01 00:44:33;;;;;;;27.60;7.97;;;5.60;99.90;;;;;;5001132;28;20026;-53
2021/12/01 00:49:33;;;;;;;18.77;7.32;;;5.60;99.90;;;;;;5006402;28;20033;-52
2021/12/01 00:52:03;;;;;;;19.65;6.55;;;5.60;99.90;;;;;;4993255;28;20376;-51
2021/12/01 00:54:28;;;;;;;29.13;6.50;;;5.60;99.90;;;;;;5001211;28;20038;-52
2021/12/01 00:56:54;;;;;;;27.05;7.32;;;5.60;99.90;;;;;;5001686;28;20037;-53
2021/12/01 00:59:22;;;;;;;29.63;6.78;;;5.50;99.90;;;;;;4992913;28;20137;-52
2021/12/01 01:01:48;;;;;;;34.13;7.60;;;5.50;99.90;;;;;;4997021;28;20026;-52
2021/12/01 01:04:14;;;;;;;28.67;7.55;;;5.50;99.90;;;;;;5004543;28;20084;-52
2021/12/01 01:06:42;;;;;;;30.40;7.95;;;5.50;99.90;;;;;;5004628;28;20026;-51
2021/12/01 01:09:09;;;;;;;27.50;8.15;;;5.50;99.90;;;;;;5006677;28;20091;-52
2021/12/01 01:17:07;;;;;;;32.67;6.95;;;5.50;99.90;;;;;;5004228;28;20112;-52
2021/12/01 01:19:34;;;;;;;26.40;6.75;;;5.50;99.90;;;;;;5010519;28;20050;-51
2021/12/01 01:22:00;;;;;;;27.00;6.47;;;5.50;99.90;;;;;;5004992;28;20034;-52
2021/12/01 01:24:27;;;;;;;25.58;6.60;;;5.50;99.90;;;;;;5008466;28;20030;-52
2021/12/01 01:26:55;;;;;;;19.52;5.75;;;5.50;99.90;;;;;;5006593;28;20026;-50
2021/12/01 01:29:22;;;;;;;21.48;6.03;;;5.50;99.90;;;;;;5008427;28;20169;-51
2021/12/01 01:31:58;;;;;;;18.63;5.93;;;5.50;99.90;;;;;;5006826;28;20069;-52
2021/12/01 01:34:25;;;;;;;21.35;6.57;;;5.40;99.90;;;;;;5008860;28;20519;-53
2021/12/01 01:36:51;;;;;;;25.83;6.80;;;5.40;99.90;;;;;;5003025;28;20026;-53
2021/12/01 01:39:17;;;;;;;36.22;7.25;;;5.40;99.90;;;;;;4995796;28;20058;-52
2021/12/01 01:41:43;;;;;;;27.95;7.15;;;5.40;99.90;;;;;;4993129;28;20034;-52
2021/12/01 01:44:09;;;;;;;24.90;6.82;;;5.40;99.90;;;;;;5003821;28;20034;-52
2021/12/01 01:46:38;;;;;;;21.73;7.57;;;5.40;99.90;;;;;;4997833;28;20400;-52
2021/12/01 01:49:17;;;;;;;28.10;7.10;;;5.40;99.90;;;;;;5003185;28;20029;-53
2021/12/01 01:51:43;;;;;;;25.80;7.60;;;5.40;99.90;;;;;;5005039;28;20026;-52
2021/12/01 01:54:10;;;;;;;24.10;7.18;;;5.40;99.90;;;;;;5004946;28;20152;-52
2021/12/01 01:56:36;;;;;;;24.27;6.80;;;5.40;99.90;;;;;;5003891;28;20096;-54
2021/12/01 01:59:03;;;;;;;24.80;6.50;;;5.40;99.90;;;;;;4997763;28;20034;-52
2021/12/01 02:03:55;;;;;;;22.08;6.40;;;5.30;99.90;;;;;;5004959;28;20026;-54
2021/12/01 02:06:24;;;;;;;17.45;6.28;;;5.30;99.90;;;;;;5008095;28;20033;-54
2021/12/01 02:08:52;;;;;;;19.85;6.63;;;5.30;99.90;;;;;;4996365;28;20025;-52
2021/12/01 02:11:20;;;;;;;24.63;6.75;;;5.40;99.90;;;;;;5007199;28;20030;-52
2021/12/01 02:13:46;;;;;;;21.92;6.13;;;5.30;99.90;;;;;;5003456;28;20060;-53
2021/12/01 02:16:14;;;;;;;20.15;6.72;;;5.40;99.90;;;;;;5007428;28;20041;-53
2021/12/01 02:18:40;;;;;;;24.20;6.95;;;5.30;99.90;;;;;;5000607;28;20061;-50
2021/12/01 02:21:13;;;;;;;16.65;6.60;;;5.40;99.90;;;;;;5007026;28;20183;-53
2021/12/01 02:23:45;;;;;;;27.45;6.28;;;5.40;99.90;;;;;;4998201;28;20038;-52
2021/12/01 02:26:13;;;;;;;22.13;6.43;;;5.30;99.90;;;;;;5001247;28;20022;-53
2021/12/01 02:28:40;;;;;;;23.63;7.47;;;5.30;99.90;;;;;;5006233;28;20026;-52
2021/12/01 02:31:06;;;;;;;21.50;6.38;;;5.30;99.90;;;;;;5002448;28;20383;-53
2021/12/01 02:33:32;;;;;;;21.65;6.30;;;5.30;99.90;;;;;;5007365;28;20037;-52
2021/12/01 02:35:57;;;;;;;19.98;6.75;;;5.40;99.90;;;;;;5002770;28;20030;-53
2021/12/01 02:38:24;;;;;;;22.38;6.72;;;5.40;99.90;;;;;;5006938;28;20037;-52
2021/12/01 02:40:51;;;;;;;22.88;7.13;;;5.30;99.90;;;;;;5003041;28;20026;-52
2021/12/01 02:43:17;;;;;;;16.33;6.05;;;5.40;99.90;;;;;;5002140;28;20092;-50
2021/12/01 02:45:43;;;;;;;20.05;6.03;;;5.40;99.90;;;;;;5009113;28;20530;-52
2021/12/01 02:48:12;;;;;;;21.60;6.80;;;5.40;99.90;;;;;;4998038;28;20022;-52
2021/12/01 02:50:39;;;;;;;16.83;6.85;;;5.40;99.90;;;;;;5001435;28;20042;-52
2021/12/01 02:53:05;;;;;;;15.40;6.78;;;5.40;99.90;;;;;;4995111;28;20422;-53
2021/12/01 02:55:32;;;;;;;16.73;6.53;;;5.40;99.90;;;;;;5000225;28;20440;-53
2021/12/01 02:57:59;;;;;;;18.80;6.85;;;5.40;99.90;;;;;;5001300;28;20036;-52
2021/12/01 03:00:26;;;;;;;12.70;5.68;;;5.40;99.90;;;;;;5002545;28;20413;-53
2021/12/01 03:02:56;;;;;;;14.90;6.00;;;5.40;99.90;;;;;;4999850;28;20109;-53
2021/12/01 03:05:22;;;;;;;12.85;5.05;;;5.40;99.90;;;;;;5002391;28;20034;-53
2021/12/01 03:07:48;;;;;;;10.68;5.20;;;5.40;99.90;;;;;;5002371;28;20472;-52
2021/12/01 03:10:14;;;;;;;12.60;5.55;;;5.40;99.90;;;;;;5007695;28;20068;-51
2021/12/01 03:12:41;;;;;;;11.30;6.00;;;5.40;99.90;;;;;;5002092;28;20026;-50
2021/12/01 03:15:09;;;;;;;14.15;6.28;;;5.40;99.90;;;;;;5002163;28;20026;-51
2021/12/01 03:17:36;;;;;;;13.25;4.20;;;5.40;99.90;;;;;;4998902;28;20108;-50
2021/12/01 03:20:07;;;;;;;9.70;4.70;;;5.40;99.90;;;;;;4988203;28;20396;-52
2021/12/01 03:22:33;;;;;;;14.02;4.93;;;5.40;99.90;;;;;;5000368;28;20033;-52
2021/12/01 03:24:59;;;;;;;8.32;4.32;;;5.40;99.90;;;;;;5003535;28;20030;-52
2021/12/01 03:27:25;;;;;;;6.28;3.38;;;5.40;99.90;;;;;;4998452;28;20029;-51
2021/12/01 03:29:51;;;;;;;7.82;3.83;;;5.40;99.90;;;;;;4988908;28;20400;-49
2021/12/01 03:32:19;;;;;;;6.90;3.65;;;5.40;99.90;;;;;;4991022;28;20314;-52
2021/12/01 03:34:46;;;;;;;5.93;3.30;;;5.40;99.90;;;;;;4990065;28;20105;-54
2021/12/01 03:37:11;;;;;;;8.57;3.92;;;5.40;99.90;;;;;;4998376;28;20114;-52
2021/12/01 03:39:37;;;;;;;8.07;4.00;;;5.40;99.90;;;;;;5005518;28;20112;-52
2021/12/01 03:42:04;;;;;;;9.43;4.05;;;5.40;99.90;;;;;;4997503;28;20037;-50
2021/12/01 03:44:31;;;;;;;10.60;4.05;;;5.50;99.90;;;;;;4997691;28;20037;-53
2021/12/01 03:46:56;;;;;;;7.13;3.72;;;5.40;99.90;;;;;;4998449;28;20472;-53
2021/12/01 03:49:22;;;;;;;10.23;3.85;;;5.50;99.90;;;;;;5006003;28;20022;-55
2021/12/01 03:51:48;;;;;;;10.05;4.28;;;5.40;99.90;;;;;;4997662;28;20027;-51
2021/12/01 03:54:14;;;;;;;7.57;3.10;;;5.50;99.90;;;;;;5004920;28;20026;-52
2021/12/01 03:56:39;;;;;;;8.70;4.00;;;5.50;99.90;;;;;;5001321;28;20100;-52
2021/12/01 03:59:05;;;;;;;7.50;3.10;;;5.50;99.90;;;;;;4994838;28;20037;-55
2021/12/01 04:01:32;;;;;;;5.82;3.10;;;5.50;99.90;;;;;;4997329;28;20169;-55
2021/12/01 04:03:58;;;;;;;5.10;3.10;;;5.50;99.90;;;;;;5001811;28;20475;-54
2021/12/01 04:06:25;;;;;;;5.28;2.75;;;5.50;99.90;;;;;;5000606;28;20049;-53
2021/12/01 04:08:51;;;;;;;6.15;2.70;;;5.50;99.90;;;;;;5001453;28;20538;-52
2021/12/01 04:11:17;;;;;;;8.15;3.13;;;5.50;99.90;;;;;;5001314;28;20026;-53
2021/12/01 04:13:43;;;;;;;5.90;2.47;;;5.60;99.90;;;;;;5001290;28;20088;-53
2021/12/01 04:16:09;;;;;;;4.28;2.60;;;5.60;99.90;;;;;;4995955;28;20026;-52
2021/12/01 04:18:34;;;;;;;5.43;2.55;;;5.60;99.90;;;;;;4999356;28;20018;-53
2021/12/01 04:21:00;;;;;;;3.72;2.40;;;5.60;99.90;;;;;;5000288;28;20034;-55
2021/12/01 04:23:26;;;;;;;4.07;2.70;;;5.70;99.90;;;;;;5006435;28;20034;-52
2021/12/01 04:25:52;;;;;;;6.45;3.03;;;5.70;99.90;;;;;;5001643;28;20030;-56
2021/12/01 04:28:18;;;;;;;4.28;2.47;;;5.70;99.90;;;;;;4998434;28;20058;-54
2021/12/01 04:30:44;;;;;;;5.13;2.60;;;5.70;99.90;;;;;;5003049;28;20104;-54
2021/12/01 04:33:10;;;;;;;5.15;2.60;;;5.70;99.90;;;;;;5003921;28;20088;-52
2021/12/01 04:35:35;;;;;;;4.65;2.33;;;5.70;99.90;;;;;;5003303;28;20511;-53
2021/12/01 04:38:03;;;;;;;3.35;2.65;;;5.70;99.90;;;;;;4995939;28;20421;-53
2021/12/01 04:40:29;;;;;;;3.47;2.40;;;5.80;99.90;;;;;;4982705;28;20026;-52
2021/12/01 04:42:54;;;;;;;4.43;2.40;;;5.80;99.90;;;;;;5003988;28;20511;-52
2021/12/01 04:45:22;;;;;;;3.20;2.40;;;5.80;99.90;;;;;;5003205;28;20042;-54
2021/12/01 04:47:51;;;;;;;3.08;2.30;;;5.80;99.90;;;;;;5007435;28;20116;-53
2021/12/01 04:50:19;;;;;;;3.00;2.50;;;5.80;99.90;;;;;;5000493;28;20125;-52
2021/12/01 04:52:45;;;;;;;3.45;2.70;;;5.80;99.90;;;;;;5003575;28;20173;-52
2021/12/01 04:55:12;;;;;;;4.63;3.05;;;5.80;99.90;;;;;;4997512;28;20027;-53
2021/12/01 04:57:42;;;;;;;4.68;2.53;;;5.80;99.90;;;;;;5007640;28;20041;-49
2021/12/01 05:00:10;;;;;;;4.38;2.70;;;5.90;99.90;;;;;;5006907;28;20423;-49
2021/12/01 05:02:36;;;;;;;3.50;2.80;;;5.90;99.90;;;;;;5003401;28;20031;-49
2021/12/01 05:05:03;;;;;;;3.53;2.63;;;5.90;99.90;;;;;;5004253;28;20163;-52
2021/12/01 05:07:28;;;;;;;4.82;3.03;;;5.90;99.90;;;;;;4996587;28;20393;-50
2021/12/01 05:09:56;;;;;;;4.53;3.00;;;5.90;99.90;;;;;;4999729;28;20026;-49
2021/12/01 05:12:21;;;;;;;4.10;3.10;;;6.00;99.90;;;;;;4992435;28;20049;-52
2021/12/01 05:14:47;;;;;;;3.22;2.58;;;6.00;99.90;;;;;;5004804;28;20026;-52
2021/12/01 05:17:13;;;;;;;5.45;3.03;;;6.00;99.90;;;;;;5003838;28;20028;-48
2021/12/01 05:19:39;;;;;;;3.15;2.60;;;6.10;99.90;;;;;;5000413;28;20044;-49
2021/12/01 05:22:05;;;;;;;3.75;2.78;;;6.10;99.90;;;;;;4991738;28;20030;-50
2021/12/01 05:24:31;;;;;;;3.15;2.75;;;6.20;99.90;;;;;;5001411;28;20057;-48
2021/12/01 05:26:57;;;;;;;2.83;2.58;;;6.20;99.90;;;;;;5006357;28;20063;-49
2021/12/01 05:29:24;;;;;;;3.50;2.80;;;6.20;99.90;;;;;;5000625;28;20038;-52
2021/12/01 05:31:50;;;;;;;3.10;2.70;;;6.20;99.90;;;;;;5008235;28;20440;-53
2021/12/01 05:34:16;;;;;;;3.65;2.70;;;6.20;99.90;;;;;;5001201;28;20423;-49
2021/12/01 05:36:42;;;;;;;3.55;2.83;;;6.30;99.90;;;;;;4993019;28;20061;-49
2021/12/01 05:39:08;;;;;;;3.15;2.67;;;6.30;99.90;;;;;;4999771;28;20476;-50
2021/12/01 05:41:33;;;;;;;2.97;2.67;;;6.40;99.90;;;;;;5008767;28;20057;-54
2021/12/01 05:44:00;;;;;;;3.95;3.13;;;6.40;99.90;;;;;;4997132;28;20507;-49
2021/12/01 05:46:27;;;;;;;3.10;2.80;;;6.50;99.90;;;;;;5003293;28;20017;-53
2021/12/01 05:48:54;;;;;;;3.28;2.60;;;6.60;99.90;;;;;;4999466;28;20069;-49
2021/12/01 05:51:20;;;;;;;3.97;3.10;;;6.60;99.90;;;;;;5008184;28;20026;-48
2021/12/01 05:53:47;;;;;;;7.57;2.60;;;6.70;99.90;;;;;;5000483;28;20061;-49
2021/12/01 05:56:13;;;;;;;4.07;3.15;;;6.70;99.90;;;;;;4992490;28;20125;-52
2021/12/01 05:58:39;;;;;;;5.68;3.30;;;6.80;99.90;;;;;;4998985;28;20131;-49
2021/12/01 06:01:05;;;;;;;4.90;3.70;;;6.80;99.90;;;;;;5005886;28;20064;-51
2021/12/01 06:03:31;;;;;;;5.00;3.80;;;6.90;99.90;;;;;;5002056;28;20503;-52
2021/12/01 06:05:57;;;;;;;7.07;4.13;;;7.00;99.90;;;;;;5004905;28;20030;-49
2021/12/01 06:08:23;;;;;;;8.50;4.80;;;7.10;99.90;;;;;;5002730;28;20122;-50
2021/12/01 06:10:49;;;;;;;5.43;4.38;;;7.40;99.90;;;;;;5003762;28;20499;-50
2021/12/01 06:13:20;;;;;;;7.20;5.30;;;7.60;99.90;;;;;;5003776;28;20464;-50
2021/12/01 06:15:49;;;;;;;6.45;5.10;;;7.80;99.90;;;;;;5002508;28;20040;-49
2021/12/01 06:18:15;;;;;;;5.97;5.18;;;8.00;99.90;;;;;;5002708;28;20036;-49
2021/12/01 06:20:41;;;;;;;6.53;4.97;;;8.10;99.90;;;;;;5003415;28;20026;-53
2021/12/01 06:23:07;;;;;;;7.53;5.10;;;8.10;99.90;;;;;;5003342;28;20030;-48
2021/12/01 06:25:33;;;;;;;8.10;5.20;;;8.10;99.90;;;;;;4995598;28;20030;-50
2021/12/01 06:27:59;;;;;;;7.32;4.82;;;8.00;99.90;;;;;;4989275;28;20039;-49
2021/12/01 06:30:26;;;;;;;4.32;3.08;;;8.20;99.90;;;;;;4995978;28;20027;-49
2021/12/01 06:32:53;;;;;;;6.10;4.88;;;8.30;99.90;;;;;;4986500;28;20089;-52
2021/12/01 06:35:19;;;;;;;4.18;3.75;;;8.30;99.90;;;;;;4971579;28;20436;-51
2021/12/01 06:37:46;;;;;;;6.40;4.20;;;8.40;99.90;;;;;;4969551;28;20031;-52
2021/12/01 06:40:13;;;;;;;5.38;4.47;;;8.50;99.90;;;;;;4971316;28;20227;-53
2021/12/01 06:42:39;;;;;;;4.40;3.10;;;8.50;99.90;;;;;;4987391;28;20397;-52
2021/12/01 06:45:07;;;;;;;3.65;3.08;;;8.60;99.90;;;;;;4983990;28;20034;-51
2021/12/01 06:47:33;;;;;;;6.35;3.10;;;8.70;99.90;;;;;;4990830;28;20130;-54
2021/12/01 06:49:59;;;;;;;3.70;3.22;;;8.60;99.90;;;;;;4989831;28;20133;-53
2021/12/01 06:52:29;;;;;;;7.05;3.90;;;8.50;99.90;;;;;;4998393;28;20022;-51
2021/12/01 06:54:57;;;;;;;4.93;3.47;;;8.60;99.90;;;;;;4992025;28;20153;-48
2021/12/01 06:57:23;;;;;;;4.53;2.72;;;8.60;99.90;;;;;;5007504;28;20045;-49
2021/12/01 06:59:48;;;;;;;3.83;3.17;;;8.60;99.90;;;;;;4996988;28;20034;-52
2021/12/01 07:02:16;;;;;;;4.60;3.45;;;8.60;99.90;;;;;;4997665;28;20081;-48
2021/12/01 07:04:42;;;;;;;4.85;3.13;;;8.60;99.90;;;;;;5009758;28;20369;-53
2021/12/01 07:07:07;;;;;;;5.95;3.03;;;8.70;99.90;;;;;;5000657;28;20092;-48
2021/12/01 07:09:33;;;;;;;4.03;3.20;;;8.60;99.90;;;;;;5003984;28;20511;-53
2021/12/01 07:11:59;;;;;;;3.47;3.13;;;8.60;99.90;;;;;;4974596;28;20034;-57
2021/12/01 07:14:24;;;;;;;3.65;2.95;;;8.70;99.90;;;;;;4992356;28;20025;-57
2021/12/01 07:16:50;;;;;;;2.83;2.50;;;8.60;99.90;;;;;;4991879;28;20117;-58
2021/12/01 07:19:16;;;;;;;2.90;2.63;;;8.70;99.90;;;;;;4995580;28;20064;-58
2021/12/01 07:21:42;;;;;;;3.80;3.10;;;8.70;99.90;;;;;;4999806;28;20034;-51
2021/12/01 07:24:08;;;;;;;3.38;3.08;;;8.70;99.90;;;;;;4971931;28;21274;-53
2021/12/01 07:26:34;;;;;;;3.03;2.72;;;8.70;99.90;;;;;;4969987;28;20038;-58
2021/12/01 07:29:00;;;;;;;3.67;3.17;;;8.80;99.90;;;;;;4970235;28;20035;-53
2021/12/01 07:31:25;;;;;;;3.78;3.00;;;8.80;99.90;;;;;;4970907;28;20030;-58
2021/12/01 07:33:51;;;;;;;5.35;3.45;;;8.80;99.90;;;;;;4971053;28;20034;-56
2021/12/01 07:36:17;;;;;;;5.35;3.33;;;8.70;99.90;;;;;;4970482;28;20046;-59
2021/12/01 07:38:43;;;;;;;3.88;3.00;;;8.70;99.90;;;;;;4969112;28;20192;-60
2021/12/01 07:41:09;;;;;;;3.67;3.38;;;8.70;99.90;;;;;;4986251;28;20037;-54
2021/12/01 07:43:35;;;;;;;4.68;3.53;;;8.70;99.90;;;;;;4991823;28;20026;-57
2021/12/01 07:46:01;;;;;;;4.32;3.60;;;8.60;99.90;;;;;;4988302;28;20026;-58
2021/12/01 07:48:28;;;;;;;4.32;3.92;;;8.70;99.90;;;;;;4989942;28;20030;-57
2021/12/01 07:50:55;;;;;;;6.30;4.43;;;8.60;99.90;;;;;;5003970;28;20052;-61
2021/12/01 07:53:21;;;;;;;5.55;4.50;;;8.60;99.90;;;;;;4986233;28;20347;-59
2021/12/01 07:55:47;;;;;;;4.68;4.20;;;8.60;99.90;;;;;;4980302;28;20088;-54
2021/12/01 07:58:13;;;;;;;4.32;3.67;;;8.60;99.90;;;;;;4984840;28;20038;-56
2021/12/01 08:00:39;;;;;;;3.70;3.30;;;8.50;99.90;;;;;;4991749;28;20041;-53
2021/12/01 08:03:05;;;;;;;4.20;3.80;;;8.50;99.90;;;;;;4983339;28;20042;-55
2021/12/01 08:05:32;;;;;;;3.15;2.60;;;8.50;99.90;;;;;;4983554;28;20038;-52
2021/12/01 08:07:57;;;;;;;2.67;2.30;;;8.50;99.90;;;;;;4999936;28;20026;-54
2021/12/01 08:10:23;;;;;;;3.10;2.80;;;8.50;99.90;;;;;;4998048;28;20062;-55
2021/12/01 08:12:49;;;;;;;3.00;2.72;;;8.50;99.90;;;;;;5003782;28;20105;-56
2021/12/01 08:15:15;;;;;;;3.17;2.88;;;8.40;99.90;;;;;;4999589;28;20048;-55
2021/12/01 08:17:40;;;;;;;3.78;2.78;;;8.40;99.90;;;;;;4995627;28;20031;-53
2021/12/01 08:20:07;;;;;;;4.07;3.20;;;8.40;99.90;;;;;;5002237;28;20085;-51
2021/12/01 08:22:32;;;;;;;4.70;2.60;;;8.40;99.90;;;;;;4999372;28;20038;-52
2021/12/01 08:24:58;;;;;;;3.75;2.88;;;8.40;99.90;;;;;;5005299;28;20028;-51
2021/12/01 08:27:25;;;;;;;3.47;2.80;;;8.50;99.90;;;;;;5009631;28;20058;-50
2021/12/01 08:29:51;;;;;;;4.70;3.30;;;8.50;99.90;;;;;;5004903;28;20472;-53
2021/12/01 08:32:17;;;;;;;3.25;2.80;;;8.50;99.90;;;;;;5010799;28;20506;-52
2021/12/01 08:34:49;;;;;;;3.78;3.33;;;8.40;99.90;;;;;;4998378;28;20038;-55
2021/12/01 08:37:17;;;;;;;4.43;3.75;;;8.40;99.90;;;;;;4992578;28;20027;-54
2021/12/01 08:39:43;;;;;;;6.57;3.80;;;8.40;99.90;;;;;;5009293;28;20077;-51
2021/12/01 08:42:10;;;;;;;5.68;3.92;;;8.40;99.90;;;;;;4993559;28;20438;-51
2021/12/01 08:44:36;;;;;;;4.30;3.60;;;8.40;99.90;;;;;;5002739;28;20033;-52
2021/12/01 08:47:02;;;;;;;4.20;3.40;;;8.30;99.90;;;;;;5004647;28;20438;-53
2021/12/01 08:49:28;;;;;;;5.60;3.50;;;8.40;99.90;;;;;;5004594;28;20018;-52
2021/12/01 08:51:54;;;;;;;3.30;2.90;;;8.40;99.90;;;;;;5000969;28;20076;-50
2021/12/01 08:54:19;;;;;;;5.65;3.28;;;8.40;99.90;;;;;;5008097;28;20240;-51
2021/12/01 08:56:45;;;;;;;2.45;2.10;;;8.40;99.90;;;;;;4996116;28;20034;-59
2021/12/01 08:59:11;;;;;;;4.25;2.90;;;8.50;99.90;;;;;;5003817;28;20480;-51
2021/12/01 09:01:37;;;;;;;3.63;2.80;;;8.50;99.90;;;;;;5007892;28;20042;-50
2021/12/01 09:04:02;;;;;;;4.55;3.45;;;8.50;99.90;;;;;;5004469;28;20113;-49
2021/12/01 09:06:30;;;;;;;6.18;3.30;;;8.50;99.90;;;;;;5004199;28;20037;-51
2021/12/01 09:08:56;;;;;;;6.07;2.92;;;8.50;99.90;;;;;;4982731;28;20040;-51
2021/12/01 09:11:22;;;;;;;4.85;2.92;;;8.40;99.90;;;;;;5009878;28;20031;-51
2021/12/01 09:13:47;;;;;;;4.60;2.80;;;8.40;99.90;;;;;;5004790;28;20208;-50
2021/12/01 09:16:13;;;;;;;4.35;2.65;;;8.40;99.90;;;;;;5003470;28;20049;-52
2021/12/01 09:18:40;;;;;;;3.22;2.92;;;8.40;99.90;;;;;;5000629;28;20038;-50
2021/12/01 09:21:06;;;;;;;4.95;3.20;;;8.40;99.90;;;;;;4999687;28;20104;-52
2021/12/01 09:23:32;;;;;;;3.60;3.30;;;8.40;99.90;;;;;;5004778;28;20084;-52
2021/12/01 09:25:58;;;;;;;6.47;2.80;;;8.40;99.90;;;;;;5006610;28;20475;-51
2021/12/01 09:28:25;;;;;;;7.75;3.08;;;8.40;99.90;;;;;;4998870;28;20033;-51
2021/12/01 09:30:53;;;;;;;3.78;3.28;;;8.40;99.90;;;;;;4999829;28;20047;-50
2021/12/01 09:33:18;;;;;;;3.58;3.28;;;8.30;99.90;;;;;;5008212;28;20396;-51
2021/12/01 09:35:45;;;;;;;3.85;2.92;;;8.40;99.90;;;;;;4996952;28;20076;-49
2021/12/01 09:38:13;;;;;;;2.88;2.60;;;8.30;99.90;;;;;;4995716;28;20113;-51
2021/12/01 09:40:42;;;;;;;4.07;2.60;;;8.40;99.90;;;;;;4995045;28;20546;-49
2021/12/01 09:43:08;;;;;;;3.45;3.00;;;8.40;99.90;;;;;;4999752;28;20035;-51
2021/12/01 09:45:34;;;;;;;3.60;2.72;;;8.40;99.90;;;;;;5010576;28;20388;-49
2021/12/01 09:48:00;;;;;;;2.60;2.40;;;8.40;99.90;;;;;;5000226;28;20038;-48
2021/12/01 09:50:25;;;;;;;4.38;2.65;;;8.50;99.90;;;;;;5005378;28;20030;-50
2021/12/01 09:52:51;;;;;;;2.85;2.40;;;8.50;99.90;;;;;;4997260;28;20029;-53
2021/12/01 09:55:18;;;;;;;2.10;1.90;;;8.50;99.90;;;;;;5003574;28;20029;-52
2021/12/01 09:58:04;;;;;;;4.07;2.80;;;8.40;99.90;;;;;;5006067;28;20030;-50
2021/12/01 10:00:31;;;;;;;2.33;1.80;;;8.50;99.90;;;;;;5003213;28;20488;-49
2021/12/01 10:02:57;;;;;;;2.38;2.08;;;8.50;99.90;;;;;;5006210;28;20026;-50
2021/12/01 10:08:38;;;;;;;2.05;1.65;;;8.60;99.90;;;;;;5003221;28;20053;-50
2021/12/01 10:11:09;;;;;;;2.00;1.80;;;8.60;99.90;;;;;;5006017;28;20060;-50
2021/12/01 10:13:41;;;;;;;2.13;1.90;;;8.60;99.90;;;;;;5003322;28;20101;-51
2021/12/01 10:16:10;;;;;;;3.25;1.80;;;8.60;99.90;;;;;;5006662;28;20048;-51
2021/12/01 10:18:56;;;;;;;3.55;1.60;;;8.60;99.90;;;;;;5002665;28;20196;-53
2021/12/01 10:21:29;;;;;;;2.22;1.92;;;8.60;99.90;;;;;;5006478;28;20057;-50
2021/12/01 10:23:58;;;;;;;2.70;2.22;;;8.60;99.90;;;;;;4995905;28;20034;-50
2021/12/01 10:26:48;;;;;;;2.10;1.67;;;8.70;99.90;;;;;;5001619;28;20033;-54
2021/12/01 10:29:22;;;;;;;1.77;1.60;;;8.70;99.90;;;;;;4991182;28;20037;-51
2021/12/01 10:32:12;;;;;;;2.35;1.50;;;8.70;99.90;;;;;;4997705;28;20022;-58
2021/12/01 10:35:00;;;;;;;2.13;1.60;;;8.70;99.90;;;;;;4997401;28;20053;-54
2021/12/01 10:37:30;;;;;;;3.30;1.52;;;8.70;99.90;;;;;;5009010;28;20092;-55
2021/12/01 10:40:17;;;;;;;1.98;1.70;;;8.70;99.90;;;;;;4988528;28;20163;-56
2021/12/01 10:42:55;;;;;;;1.92;1.70;;;8.70;99.90;;;;;;4999062;28;20492;-56
2021/12/01 10:45:24;;;;;;;4.68;1.77;;;8.70;99.90;;;;;;4990108;28;20041;-56
2021/12/01 10:47:50;;;;;;;2.08;1.58;;;8.70;99.90;;;;;;4991949;28;20023;-55
2021/12/01 10:50:20;;;;;;;4.53;1.80;;;8.70;99.90;;;;;;4991079;28;20038;-55
2021/12/01 10:52:49;;;;;;;1.80;1.60;;;8.70;99.90;;;;;;4989560;28;20035;-57
2021/12/01 10:55:24;;;;;;;3.00;1.80;;;8.70;99.90;;;;;;4993927;28;20460;-52
2021/12/01 10:57:55;;;;;;;1.92;1.42;;;8.70;99.90;;;;;;4997899;28;20026;-53
2021/12/01 11:00:26;;;;;;;2.17;1.60;;;8.70;99.90;;;;;;5003977;28;20042;-51
2021/12/01 11:02:53;;;;;;;3.90;1.58;;;8.70;99.90;;;;;;4998365;28;20029;-53
2021/12/01 11:05:30;;;;;;;4.82;1.83;;;8.70;99.90;;;;;;5006754;28;20066;-55
2021/12/01 11:07:56;;;;;;;1.73;1.63;;;8.70;99.90;;;;;;4997344;28;20026;-51
2021/12/01 11:10:25;;;;;;;1.98;1.63;;;8.70;99.90;;;;;;5002321;28;20030;-53
2021/12/01 11:12:59;;;;;;;1.80;1.70;;;8.70;99.90;;;;;;4999279;28;20618;-52
2021/12/01 11:15:34;;;;;;;6.82;2.03;;;8.70;99.90;;;;;;5010221;28;20449;-55
2021/12/01 11:18:02;;;;;;;3.15;1.50;;;8.70;99.90;;;;;;4993355;28;20030;-51
2021/12/01 11:20:34;;;;;;;1.60;1.50;;;8.70;99.90;;;;;;4990861;28;20030;-51
2021/12/01 11:23:13;;;;;;;3.00;1.73;;;8.70;99.90;;;;;;4990607;28;20022;-54
2021/12/01 11:25:40;;;;;;;4.43;1.70;;;8.70;99.90;;;;;;4990172;28;20141;-52
2021/12/01 11:28:09;;;;;;;1.83;1.45;;;8.70;99.90;;;;;;4997789;28;20423;-49
2021/12/01 11:30:39;;;;;;;2.30;1.45;;;8.70;99.90;;;;;;4992524;28;20022;-52
2021/12/01 11:33:05;;;;;;;1.98;1.50;;;8.80;99.90;;;;;;4998267;28;20030;-53
2021/12/01 11:35:32;;;;;;;1.13;1.00;;;8.80;99.90;;;;;;5002531;28;20039;-52
2021/12/01 11:37:58;;;;;;;4.10;1.80;;;8.80;99.90;;;;;;5003022;28;20033;-52
2021/12/01 11:40:29;;;;;;;2.08;1.55;;;8.80;99.90;;;;;;4999710;28;20396;-53
2021/12/01 11:42:57;;;;;;;2.22;1.35;;;8.90;99.90;;;;;;5000160;28;20034;-54
2021/12/01 11:45:23;;;;;;;1.67;1.50;;;8.90;99.90;;;;;;4993666;28;20093;-49
2021/12/01 11:47:50;;;;;;;1.70;1.50;;;8.90;99.90;;;;;;4996363;28;20112;-52
2021/12/01 11:50:31;;;;;;;2.83;1.27;;;8.90;99.90;;;;;;5001850;28;20033;-51
2021/12/01 11:53:10;;;;;;;1.75;1.20;;;9.00;99.90;;;;;;4998803;28;20076;-50
2021/12/01 11:55:57;;;;;;;2.45;1.25;;;9.00;99.90;;;;;;4998496;28;20022;-54
2021/12/01 11:58:42;;;;;;;2.83;1.40;;;9.00;99.90;;;;;;4997106;28;20048;-51
2021/12/01 12:01:30;;;;;;;3.13;1.33;;;9.00;99.90;;;;;;5009801;28;20033;-50
2021/12/01 12:04:01;;;;;;;3.50;1.15;;;9.00;99.90;;;;;;4990825;28;20026;-56
2021/12/01 12:06:28;;;;;;;1.55;1.40;;;9.00;99.90;;;;;;4991594;28;20034;-53
2021/12/01 12:08:54;;;;;;;3.15;1.52;;;8.90;99.90;;;;;;4997195;28;20030;-54
2021/12/01 12:11:36;;;;;;;1.80;1.50;;;8.90;99.90;;;;;;4988838;28;20089;-56
2021/12/01 12:14:24;;;;;;;2.85;1.80;;;8.90;99.90;;;;;;4991773;28;20039;-55
2021/12/01 12:17:10;;;;;;;2.20;2.00;;;8.80;99.90;;;;;;4986323;28;20033;-55
2021/12/01 12:20:07;;;;;;;1.83;1.60;;;8.70;99.90;;;;;;5001519;28;20041;-53
2021/12/01 12:22:42;;;;;;;2.13;1.40;;;8.80;99.90;;;;;;5003905;28;20088;-52
2021/12/01 12:25:11;;;;;;;2.65;1.33;;;8.80;99.90;;;;;;4986646;28;20105;-53
2021/12/01 12:27:37;;;;;;;2.55;1.33;;;8.90;99.90;;;;;;4992064;28;20396;-50
2021/12/01 12:30:13;;;;;;;2.10;1.15;;;8.90;99.90;;;;;;4997871;28;20045;-50
2021/12/01 12:32:39;;;;;;;2.40;1.27;;;9.00;99.90;;;;;;5000916;28;20034;-53
2021/12/01 12:35:12;;;;;;;2.13;1.00;;;9.10;99.90;;;;;;5004449;28;20034;-51
2021/12/01 12:37:39;;;;;;;2.00;0.90;;;9.20;99.90;;;;;;5000531;28;20030;-49
2021/12/01 12:40:29;;;;;;;2.75;1.00;;;9.20;99.90;;;;;;5003427;28;20033;-52
2021/12/01 12:43:29;;;;;;;1.73;1.08;;;9.40;99.90;;;;;;4982662;28;20038;-50
2021/12/01 12:46:12;;;;;;;2.83;1.05;;;9.50;99.90;;;;;;4956939;28;20088;-52
2021/12/01 12:48:50;;;;;;;3.72;0.93;;;9.40;99.90;;;;;;4990911;28;20077;-53
2021/12/01 12:51:16;;;;;;;8.60;1.30;;;9.40;99.90;;;;;;4996954;28;20022;-53
2021/12/01 12:54:04;;;;;;;1.88;1.00;;;9.30;99.90;;;;;;5009412;28;20014;-50
2021/12/01 12:56:51;;;;;;;1.80;1.00;;;9.20;99.90;;;;;;4999358;28;20027;-54
2021/12/01 12:59:22;;;;;;;2.15;1.20;;;9.30;99.90;;;;;;5008257;28;20026;-54
2021/12/01 13:01:54;;;;;;;3.80;1.48;;;9.40;99.90;;;;;;4988735;28;20056;-55
2021/12/01 13:04:38;;;;;;;;;;;9.40;99.90;;;;;;5003050;28;20030;-55
2021/12/01 13:07:29;;;;;;;3.05;0.75;;;9.40;99.90;;;;;;4995242;28;19937;-53
2021/12/01 13:10:16;;;;;;;6.93;1.50;;;9.40;99.90;;;;;;4976549;28;20022;-54
2021/12/01 13:12:51;;;;;;;2.20;0.90;;;9.30;99.90;;;;;;5003817;28;20026;-52
2021/12/01 13:15:48;;;;;;;2.55;1.48;;;9.30;99.90;;;;;;5005074;28;20022;-53